createdAt,value
2017-12-19T00:01:47.173Z,85.90
2017-12-19T00:04:13.451Z,86.60
2017-12-19T00:06:41.445Z,86.00
2017-12-19T00:09:07.683Z,86.50
2017-12-19T00:11:34.639Z,86.70
2017-12-19T00:14:01.589Z,86.60
2017-12-19T00:16:28.530Z,86.70
2017-12-19T00:18:55.843Z,86.40
2017-12-19T00:21:23.040Z,86.80
2017-12-19T00:23:50.014Z,86.20
2017-12-19T00:26:16.535Z,86.20
2017-12-19T00:28:42.795Z,86.00
2017-12-19T00:31:09.023Z,86.50
2017-12-19T00:33:35.228Z,86.50
2017-12-19T00:36:01.442Z,86.30
2017-12-19T00:38:28.390Z,86.70
2017-12-19T00:40:54.631Z,86.60
2017-12-19T00:43:20.873Z,87.00
2017-12-19T00:45:48.183Z,86.90
2017-12-19T00:48:14.364Z,86.90
2017-12-19T00:50:40.594Z,86.30
2017-12-19T00:53:07.435Z,86.20
2017-12-19T00:55:33.650Z,86.70
2017-12-19T00:58:00.077Z,86.20
2017-12-19T01:00:26.280Z,86.40
2017-12-19T01:02:53.510Z,86.40
2017-12-19T01:05:19.797Z,86.30
2017-12-19T01:07:46.020Z,87.10
2017-12-19T01:10:12.279Z,86.80
2017-12-19T01:12:38.473Z,86.90
2017-12-19T01:15:05.420Z,86.40
2017-12-19T01:17:31.723Z,86.50
2017-12-19T01:29:43.681Z,86.10
2017-12-19T01:32:09.890Z,86.10
2017-12-19T01:34:36.563Z,87.00
2017-12-19T01:37:03.514Z,86.90
2017-12-19T01:39:31.224Z,86.60
2017-12-19T01:41:57.408Z,86.30
2017-12-19T01:44:24.408Z,86.70
2017-12-19T01:46:50.626Z,86.70
2017-12-19T01:49:17.176Z,87.40
2017-12-19T01:51:43.387Z,85.60
2017-12-19T01:54:09.599Z,84.10
2017-12-19T01:56:35.822Z,83.70
2017-12-19T01:59:02.064Z,84.40
2017-12-19T02:01:28.294Z,85.00
2017-12-19T02:03:54.535Z,84.80
2017-12-19T02:06:20.741Z,85.30
2017-12-19T02:08:46.978Z,85.00
2017-12-19T02:11:13.346Z,84.80
2017-12-19T02:13:39.566Z,84.60
2017-12-19T02:16:05.780Z,85.30
2017-12-19T02:18:32.056Z,85.40
2017-12-19T02:20:58.623Z,85.30
2017-12-19T02:23:24.983Z,84.70
2017-12-19T02:25:51.265Z,85.50
2017-12-19T02:28:19.030Z,85.50
2017-12-19T02:30:46.012Z,85.40
2017-12-19T02:33:12.235Z,85.40
2017-12-19T02:35:38.474Z,85.40
2017-12-19T02:38:04.757Z,85.60
2017-12-19T02:40:31.691Z,85.60
2017-12-19T02:43:10.071Z,85.50
2017-12-19T02:45:36.302Z,84.90
2017-12-19T02:48:02.559Z,85.50
2017-12-19T02:50:28.764Z,86.00
2017-12-19T02:52:54.986Z,86.00
2017-12-19T02:55:22.022Z,86.20
2017-12-19T02:57:48.252Z,86.20
2017-12-19T03:00:14.582Z,86.20
2017-12-19T03:02:40.785Z,86.00
2017-12-19T03:05:07.783Z,85.80
2017-12-19T03:07:34.000Z,85.80
2017-12-19T03:10:00.195Z,85.80
2017-12-19T03:12:26.424Z,85.90
2017-12-19T03:14:53.411Z,86.00
2017-12-19T03:17:19.638Z,85.90
2017-12-19T03:19:45.836Z,85.80
2017-12-19T03:22:12.021Z,85.90
2017-12-19T03:24:38.255Z,86.10
2017-12-19T03:27:04.462Z,86.80
2017-12-19T03:29:30.763Z,86.10
2017-12-19T03:31:57.059Z,85.90
2017-12-19T03:34:23.980Z,85.90
2017-12-19T03:36:50.257Z,85.90
2017-12-19T03:39:16.509Z,85.60
2017-12-19T03:41:42.746Z,85.30
2017-12-19T03:44:08.927Z,85.50
2017-12-19T03:46:35.878Z,85.60
2017-12-19T03:49:02.874Z,85.30
2017-12-19T03:51:29.092Z,85.30
2017-12-19T03:53:55.313Z,85.20
2017-12-19T03:56:21.511Z,85.50
2017-12-19T03:58:48.516Z,85.90
2017-12-19T04:01:14.749Z,85.90
2017-12-19T04:03:40.956Z,85.90
2017-12-19T04:06:07.844Z,86.00
2017-12-19T04:08:34.812Z,86.10
2017-12-19T04:11:02.520Z,85.50
2017-12-19T04:13:28.939Z,86.10
2017-12-19T04:15:55.282Z,86.10
2017-12-19T04:18:21.542Z,85.60
2017-12-19T04:20:47.788Z,84.70
2017-12-19T04:23:14.720Z,84.90
2017-12-19T04:25:41.681Z,84.50
2017-12-19T04:28:08.586Z,84.40
2017-12-19T04:30:34.815Z,84.40
2017-12-19T04:33:01.196Z,84.10
2017-12-19T04:35:28.047Z,84.10
2017-12-19T04:37:54.257Z,84.40
2017-12-19T04:40:21.550Z,84.10
2017-12-19T04:42:47.743Z,84.80
2017-12-19T04:45:14.824Z,84.50
2017-12-19T04:47:41.035Z,84.50
2017-12-19T04:50:07.900Z,84.10
2017-12-19T04:52:34.120Z,84.20
2017-12-19T04:55:00.340Z,84.60
2017-12-19T04:57:26.553Z,84.80
2017-12-19T04:59:53.494Z,85.00
2017-12-19T05:02:20.557Z,85.00
2017-12-19T05:04:46.802Z,85.00
2017-12-19T05:07:13.068Z,84.80
2017-12-19T05:09:39.271Z,84.80
2017-12-19T05:12:05.500Z,84.80
2017-12-19T05:14:31.737Z,84.60
2017-12-19T05:16:58.876Z,84.40
2017-12-19T05:19:25.104Z,84.90
2017-12-19T05:21:51.348Z,84.60
2017-12-19T05:24:17.621Z,84.50
2017-12-19T05:26:44.565Z,84.80
2017-12-19T05:29:10.822Z,84.10
2017-12-19T05:31:37.032Z,84.10
2017-12-19T05:34:04.056Z,84.50
2017-12-19T05:36:30.283Z,84.70
2017-12-19T05:38:56.525Z,84.60
2017-12-19T05:41:22.806Z,85.30
2017-12-19T05:43:49.002Z,84.30
2017-12-19T05:46:15.992Z,85.00
2017-12-19T05:48:42.251Z,85.00
2017-12-19T05:51:09.516Z,85.10
2017-12-19T05:53:35.744Z,85.10
2017-12-19T05:56:02.063Z,85.30
2017-12-19T05:58:28.267Z,85.70
2017-12-19T06:00:54.476Z,86.20
2017-12-19T06:03:20.757Z,86.00
2017-12-19T06:05:47.300Z,86.30
2017-12-19T06:08:13.554Z,86.10
2017-12-19T06:10:39.728Z,86.30
2017-12-19T06:13:05.934Z,86.90
2017-12-19T06:15:32.696Z,86.80
2017-12-19T06:17:58.949Z,86.90
2017-12-19T06:20:25.240Z,86.90
2017-12-19T06:22:51.687Z,86.80
2017-12-19T06:25:17.978Z,86.90
2017-12-19T06:27:45.073Z,86.30
2017-12-19T06:30:11.381Z,86.00
2017-12-19T06:32:37.582Z,85.70
2017-12-19T06:35:05.251Z,85.20
2017-12-19T06:37:31.548Z,85.20
2017-12-19T06:39:58.537Z,85.00
2017-12-19T06:42:24.770Z,84.80
2017-12-19T06:44:50.988Z,85.00
2017-12-19T06:57:02.225Z,84.90
2017-12-19T06:59:29.299Z,85.70
2017-12-19T07:01:55.562Z,85.70
2017-12-19T07:04:22.583Z,85.80
2017-12-19T07:06:48.800Z,85.80
2017-12-19T07:09:15.021Z,86.00
2017-12-19T07:11:41.277Z,86.30
2017-12-19T07:14:07.516Z,86.60
2017-12-19T07:16:34.702Z,86.50
2017-12-19T07:19:00.931Z,86.70
2017-12-19T07:21:27.246Z,86.70
2017-12-19T07:23:53.452Z,87.50
2017-12-19T07:26:19.633Z,86.70
2017-12-19T07:28:46.718Z,86.20
2017-12-19T07:31:13.725Z,86.20
2017-12-19T07:33:40.698Z,86.80
2017-12-19T07:36:06.921Z,86.70
2017-12-19T07:38:33.150Z,86.70
2017-12-19T07:40:59.380Z,86.50
2017-12-19T07:43:25.659Z,86.60
2017-12-19T07:45:52.624Z,86.80
2017-12-19T07:48:18.892Z,86.70
2017-12-19T07:50:45.903Z,86.60
2017-12-19T07:53:12.119Z,86.40
2017-12-19T07:55:38.365Z,86.30
2017-12-19T07:58:05.331Z,86.50
2017-12-19T08:00:31.576Z,85.30
2017-12-19T08:02:57.843Z,85.80
2017-12-19T08:05:25.113Z,85.80
2017-12-19T08:07:51.378Z,86.00
2017-12-19T08:10:17.960Z,84.70
2017-12-19T08:12:44.215Z,84.70
2017-12-19T08:15:10.472Z,85.30
2017-12-19T08:17:37.466Z,85.30
2017-12-19T08:20:03.965Z,85.40
2017-12-19T08:22:30.190Z,85.10
2017-12-19T08:24:56.395Z,84.60
2017-12-19T08:27:23.383Z,85.00
2017-12-19T08:29:49.617Z,85.00
2017-12-19T08:32:15.829Z,84.80
2017-12-19T08:34:42.016Z,84.30
2017-12-19T08:37:10.006Z,83.00
2017-12-19T08:39:36.930Z,82.60
2017-12-19T08:42:04.021Z,82.60
2017-12-19T08:44:30.335Z,83.20
2017-12-19T08:46:57.243Z,81.90
2017-12-19T08:49:23.463Z,81.30
2017-12-19T08:51:49.677Z,81.00
2017-12-19T08:54:16.667Z,80.20
2017-12-19T08:56:42.880Z,79.80
2017-12-19T08:59:09.139Z,79.80
2017-12-19T09:01:36.112Z,79.60
2017-12-19T09:04:02.327Z,79.60
2017-12-19T09:06:29.321Z,79.80
2017-12-19T09:08:55.546Z,79.80
2017-12-19T09:11:21.771Z,78.90
2017-12-19T09:13:47.989Z,79.10
2017-12-19T09:16:14.218Z,79.00
2017-12-19T09:18:40.449Z,78.40
2017-12-19T09:21:07.220Z,78.40
2017-12-19T09:23:33.535Z,78.40
2017-12-19T09:26:00.714Z,78.50
2017-12-19T09:28:26.877Z,78.50
2017-12-19T09:30:53.064Z,78.50
2017-12-19T09:33:19.233Z,78.50
2017-12-19T09:35:46.442Z,78.10
2017-12-19T09:38:12.606Z,78.00
2017-12-19T09:40:39.541Z,78.30
2017-12-19T09:43:07.182Z,78.30
2017-12-19T09:45:33.717Z,78.40
2017-12-19T09:48:00.774Z,78.10
2017-12-19T09:50:27.051Z,77.90
2017-12-19T09:52:53.299Z,78.50
2017-12-19T09:55:20.244Z,78.20
2017-12-19T09:57:46.454Z,78.10
2017-12-19T10:00:12.882Z,77.30
2017-12-19T10:12:24.113Z,77.50
2017-12-19T10:14:50.289Z,78.50
2017-12-19T10:17:16.563Z,78.50
2017-12-19T10:19:44.368Z,78.40
2017-12-19T10:22:10.579Z,78.70
2017-12-19T10:24:36.813Z,79.10
2017-12-19T10:27:03.013Z,78.40
2017-12-19T10:29:29.973Z,78.40
2017-12-19T10:31:56.190Z,78.40
2017-12-19T10:34:23.303Z,78.40
2017-12-19T10:36:49.549Z,78.40
2017-12-19T10:39:15.841Z,78.30
2017-12-19T10:41:42.061Z,78.30
2017-12-19T10:44:08.298Z,78.30
2017-12-19T10:46:34.545Z,78.30
2017-12-19T10:49:00.757Z,82.30
2017-12-19T10:51:26.929Z,89.90
2017-12-19T10:53:53.125Z,81.10
2017-12-19T10:56:19.327Z,76.90
2017-12-19T10:58:45.522Z,77.30
2017-12-19T11:01:12.520Z,77.20
2017-12-19T11:03:38.722Z,76.50
2017-12-19T11:06:04.945Z,77.50
2017-12-19T11:08:31.188Z,80.50
2017-12-19T11:10:57.370Z,76.00
2017-12-19T11:13:23.588Z,76.80
2017-12-19T11:15:49.748Z,79.00
2017-12-19T11:18:16.721Z,77.30
2017-12-19T11:20:42.882Z,77.90
2017-12-19T11:23:09.112Z,77.40
2017-12-19T11:25:35.314Z,77.80
2017-12-19T11:28:01.619Z,78.30
2017-12-19T11:30:28.858Z,78.30
2017-12-19T11:32:55.880Z,78.30
2017-12-19T11:35:22.994Z,78.10
2017-12-19T11:37:49.851Z,78.30
2017-12-19T11:40:16.121Z,78.70
2017-12-19T11:42:43.106Z,79.40
2017-12-19T11:45:09.286Z,79.50
2017-12-19T11:47:35.587Z,80.00
2017-12-19T11:50:01.793Z,80.30
2017-12-19T11:52:28.018Z,80.20
2017-12-19T11:54:54.262Z,80.50
2017-12-19T11:57:21.423Z,80.70
2017-12-19T11:59:47.757Z,81.30
2017-12-19T12:02:15.739Z,81.90
2017-12-19T12:04:56.864Z,82.40
2017-12-19T12:07:23.851Z,83.90
2017-12-19T12:09:50.078Z,83.90
2017-12-19T12:12:16.326Z,84.10
2017-12-19T12:14:42.539Z,83.90
2017-12-19T12:17:08.739Z,83.90
2017-12-19T12:19:34.923Z,84.00
2017-12-19T12:22:01.175Z,84.10
2017-12-19T12:24:28.169Z,83.80
2017-12-19T12:26:54.399Z,84.50
2017-12-19T12:29:35.574Z,83.30
2017-12-19T12:32:01.802Z,83.30
2017-12-19T12:34:28.038Z,83.50
2017-12-19T12:36:54.258Z,83.70
2017-12-19T12:39:20.437Z,84.30
2017-12-19T12:41:47.413Z,84.20
2017-12-19T12:44:13.752Z,84.30
2017-12-19T12:46:39.966Z,84.60
2017-12-19T12:49:06.201Z,83.90
2017-12-19T12:51:32.400Z,83.80
2017-12-19T12:53:59.371Z,84.80
2017-12-19T12:56:26.002Z,85.00
2017-12-19T12:58:52.297Z,85.40
2017-12-19T13:01:18.950Z,85.40
2017-12-19T13:03:45.962Z,85.50
2017-12-19T13:06:12.237Z,85.40
2017-12-19T13:08:39.232Z,85.50
2017-12-19T13:11:05.655Z,85.50
2017-12-19T13:13:31.887Z,85.50
2017-12-19T13:15:58.092Z,85.50
2017-12-19T13:18:24.308Z,85.50
2017-12-19T13:20:51.274Z,85.60
2017-12-19T13:23:17.453Z,85.50
2017-12-19T13:25:43.643Z,85.40
2017-12-19T13:28:10.139Z,85.50
2017-12-19T13:30:37.098Z,85.50
2017-12-19T13:33:03.305Z,85.50
2017-12-19T13:35:30.219Z,86.00
2017-12-19T13:37:56.432Z,86.00
2017-12-19T13:40:22.640Z,85.50
2017-12-19T13:42:50.534Z,85.90
2017-12-19T13:45:16.854Z,85.30
2017-12-19T13:47:43.074Z,85.70
2017-12-19T13:50:10.006Z,86.30
2017-12-19T13:52:36.203Z,86.50
2017-12-19T13:55:02.482Z,86.70
2017-12-19T13:57:29.548Z,87.10
2017-12-19T13:59:55.853Z,86.30
2017-12-19T14:02:22.050Z,86.60
2017-12-19T14:04:49.386Z,85.70
2017-12-19T14:07:15.601Z,85.70
2017-12-19T14:09:41.923Z,85.50
2017-12-19T14:12:08.921Z,85.80
2017-12-19T14:14:35.862Z,86.00
2017-12-19T14:17:03.746Z,86.30
2017-12-19T14:19:30.772Z,86.70
2017-12-19T14:21:56.996Z,86.00
2017-12-19T14:24:23.195Z,86.90
2017-12-19T14:26:49.422Z,86.50
2017-12-19T14:29:15.611Z,86.50
2017-12-19T14:31:42.524Z,86.70
2017-12-19T14:34:09.533Z,86.60
2017-12-19T14:36:35.752Z,87.10
2017-12-19T14:39:02.083Z,87.00
2017-12-19T14:41:28.281Z,87.30
2017-12-19T14:43:55.817Z,87.70
2017-12-19T14:46:22.046Z,87.70
2017-12-19T14:48:48.351Z,87.80
2017-12-19T14:51:15.404Z,87.70
2017-12-19T14:53:42.403Z,88.50
2017-12-19T14:56:08.710Z,88.60
2017-12-19T14:58:35.059Z,88.60
2017-12-19T15:01:02.309Z,88.60
2017-12-19T15:03:29.367Z,88.60
2017-12-19T15:05:56.224Z,89.30
2017-12-19T15:08:22.424Z,88.30
2017-12-19T15:10:50.352Z,88.60
2017-12-19T15:13:16.664Z,88.40
2017-12-19T15:15:43.099Z,88.50
2017-12-19T15:18:09.322Z,88.80
2017-12-19T15:20:35.597Z,88.90
2017-12-19T15:23:02.059Z,88.70
2017-12-19T15:25:29.045Z,89.30
2017-12-19T15:27:55.317Z,89.30
2017-12-19T15:30:21.634Z,89.10
2017-12-19T15:32:47.883Z,89.50
2017-12-19T15:35:14.805Z,89.00
2017-12-19T15:37:41.917Z,89.00
2017-12-19T15:40:08.160Z,89.20
2017-12-19T15:42:34.461Z,89.10
2017-12-19T15:45:00.690Z,89.20
2017-12-19T15:47:27.059Z,89.50
2017-12-19T15:49:53.329Z,89.80
2017-12-19T15:52:20.308Z,89.60
2017-12-19T15:54:46.647Z,88.90
2017-12-19T15:57:12.862Z,89.50
2017-12-19T15:59:39.018Z,89.40
2017-12-19T16:02:05.227Z,89.30
2017-12-19T16:04:32.232Z,89.30
2017-12-19T16:06:58.776Z,89.70
2017-12-19T16:09:25.741Z,90.00
2017-12-19T16:11:52.687Z,89.90
2017-12-19T16:14:19.606Z,89.80
2017-12-19T16:16:45.830Z,89.80
2017-12-19T16:19:12.007Z,89.60
2017-12-19T16:21:38.354Z,89.50
2017-12-19T16:24:04.546Z,89.50
2017-12-19T16:26:31.510Z,89.50
2017-12-19T16:28:57.721Z,89.50
2017-12-19T16:31:24.739Z,89.50
2017-12-19T16:33:50.964Z,89.40
2017-12-19T16:36:17.285Z,89.30
2017-12-19T16:38:43.462Z,89.20
2017-12-19T16:41:09.898Z,89.70
2017-12-19T16:43:36.180Z,89.30
2017-12-19T16:46:02.378Z,89.80
2017-12-19T16:48:28.658Z,89.80
2017-12-19T16:50:54.836Z,89.90
2017-12-19T16:53:21.071Z,90.70
2017-12-19T16:55:47.313Z,90.40
2017-12-19T16:58:13.529Z,90.40
2017-12-19T17:00:39.772Z,90.40
2017-12-19T17:03:06.042Z,90.50
2017-12-19T17:05:32.564Z,90.30
2017-12-19T17:07:58.894Z,90.40
2017-12-19T17:10:26.112Z,90.40
2017-12-19T17:12:52.766Z,90.40
2017-12-19T17:15:20.509Z,90.40
2017-12-19T17:17:46.984Z,90.10
2017-12-19T17:20:13.144Z,90.10
2017-12-19T17:22:39.416Z,90.30
2017-12-19T17:25:05.608Z,90.40
2017-12-19T17:27:32.548Z,90.20
2017-12-19T17:29:58.834Z,90.20
2017-12-19T17:32:25.209Z,90.40
2017-12-19T17:34:51.471Z,90.00
2017-12-19T17:37:17.664Z,90.10
2017-12-19T17:39:44.668Z,90.20
2017-12-19T17:42:10.929Z,90.10
2017-12-19T17:44:37.978Z,90.30
2017-12-19T17:47:04.947Z,90.10
2017-12-19T17:49:31.245Z,90.20
2017-12-19T17:51:57.466Z,90.10
2017-12-19T17:54:23.672Z,90.10
2017-12-19T17:56:49.935Z,89.70
2017-12-19T17:59:16.133Z,90.00
2017-12-19T18:01:43.310Z,90.10
2017-12-19T18:04:09.866Z,90.20
2017-12-19T18:06:51.750Z,90.30
2017-12-19T18:09:18.748Z,90.70
2017-12-19T18:11:44.953Z,90.40
2017-12-19T18:14:11.171Z,90.40
2017-12-19T18:16:38.136Z,90.10
2017-12-19T18:19:04.338Z,90.10
2017-12-19T18:21:31.308Z,90.00
2017-12-19T18:23:57.737Z,90.00
2017-12-19T18:26:25.172Z,90.10
2017-12-19T18:28:51.504Z,90.10
2017-12-19T18:31:18.475Z,90.70
2017-12-19T18:33:44.724Z,90.60
2017-12-19T18:36:10.920Z,90.60
2017-12-19T18:38:38.000Z,91.20
2017-12-19T18:41:04.963Z,91.50
2017-12-19T18:43:32.861Z,91.20
2017-12-19T18:45:59.116Z,91.20
2017-12-19T18:48:25.337Z,91.20
2017-12-19T18:50:52.270Z,91.20
2017-12-19T18:53:19.290Z,91.50
2017-12-19T18:55:45.560Z,91.20
2017-12-19T18:58:12.525Z,91.20
2017-12-19T19:00:38.789Z,91.20
2017-12-19T19:03:05.056Z,91.20
2017-12-19T19:05:32.520Z,91.20
2017-12-19T19:07:59.532Z,91.20
2017-12-19T19:10:25.804Z,91.20
2017-12-19T19:12:52.073Z,91.20
2017-12-19T19:15:18.331Z,91.20
2017-12-19T19:17:44.539Z,91.20
2017-12-19T19:20:10.813Z,91.20
2017-12-19T19:22:41.539Z,91.00
2017-12-19T19:25:08.664Z,91.10
2017-12-19T19:27:35.885Z,91.10
2017-12-19T19:30:02.299Z,91.00
2017-12-19T19:32:29.214Z,90.90
2017-12-19T19:34:55.430Z,90.90
2017-12-19T19:37:21.698Z,90.80
2017-12-19T19:39:47.983Z,90.80
2017-12-19T19:42:14.201Z,90.70
2017-12-19T19:44:40.399Z,90.60
2017-12-19T19:47:06.619Z,90.60
2017-12-19T19:49:33.656Z,90.50
2017-12-19T19:52:00.631Z,90.40
2017-12-19T19:54:26.822Z,90.40
2017-12-19T19:56:53.002Z,90.30
2017-12-19T19:59:20.198Z,90.30
2017-12-19T20:01:46.971Z,90.10
2017-12-19T20:04:13.176Z,90.00
2017-12-19T20:06:40.175Z,89.60
2017-12-19T20:09:06.460Z,89.60
2017-12-19T20:11:33.432Z,90.30
2017-12-19T20:13:59.849Z,90.00
2017-12-19T20:16:26.916Z,89.90
2017-12-19T20:18:53.299Z,89.90
2017-12-19T20:21:19.566Z,89.60
2017-12-19T20:23:47.256Z,90.10
2017-12-19T20:26:13.474Z,90.10
2017-12-19T20:28:39.723Z,90.10
2017-12-19T20:31:06.009Z,90.10
2017-12-19T20:33:33.123Z,90.40
2017-12-19T20:35:59.329Z,90.50
2017-12-19T20:38:25.680Z,90.50
2017-12-19T20:40:51.952Z,90.50
2017-12-19T20:43:18.945Z,90.40
2017-12-19T20:45:45.170Z,90.40
2017-12-19T20:48:11.450Z,89.00
2017-12-19T20:50:38.511Z,89.10
2017-12-19T20:53:04.999Z,89.10
2017-12-19T20:55:32.637Z,89.10
2017-12-19T20:57:59.044Z,89.20
2017-12-19T21:00:26.827Z,89.80
2017-12-19T21:02:53.044Z,89.80
2017-12-19T21:05:19.265Z,90.10
2017-12-19T21:07:46.266Z,90.70
2017-12-19T21:10:13.471Z,90.70
2017-12-19T21:12:40.204Z,90.80
2017-12-19T21:15:06.515Z,90.80
2017-12-19T21:17:33.605Z,90.70
2017-12-19T21:19:59.867Z,90.40
2017-12-19T21:22:26.154Z,90.60
2017-12-19T21:24:52.417Z,90.80
2017-12-19T21:27:21.833Z,91.10
2017-12-19T21:29:48.029Z,91.20
2017-12-19T21:32:14.215Z,91.20
2017-12-19T21:34:42.736Z,91.10
2017-12-19T21:37:09.464Z,91.10
2017-12-19T21:39:35.771Z,91.20
2017-12-19T21:42:04.016Z,91.40
2017-12-19T21:44:30.266Z,91.40
2017-12-19T21:46:56.521Z,91.40
2017-12-19T21:49:22.788Z,91.30
2017-12-19T21:51:49.004Z,91.20
2017-12-19T21:54:15.250Z,91.20
2017-12-19T21:56:41.472Z,91.20
2017-12-19T21:59:08.392Z,91.20
2017-12-19T22:01:36.354Z,91.20
2017-12-19T22:04:02.583Z,91.00
2017-12-19T22:06:28.942Z,91.20
2017-12-19T22:09:00.762Z,91.20
2017-12-19T22:11:27.616Z,91.30
2017-12-19T22:13:57.025Z,91.20
2017-12-19T22:16:24.892Z,91.20
2017-12-19T22:18:51.822Z,90.50
2017-12-19T22:21:20.095Z,90.40
2017-12-19T22:23:46.334Z,90.40
2017-12-19T22:26:14.598Z,90.40
2017-12-19T22:28:41.887Z,90.40
2017-12-19T22:31:08.160Z,90.30
2017-12-19T22:33:35.035Z,90.30
2017-12-19T22:36:02.165Z,90.20
2017-12-19T22:38:28.467Z,90.20
2017-12-19T22:40:56.023Z,90.50
2017-12-19T22:43:22.273Z,90.70
2017-12-19T22:45:49.540Z,91.20
2017-12-19T22:48:17.184Z,91.20
2017-12-19T22:50:43.471Z,91.50
2017-12-19T22:53:09.775Z,91.80
2017-12-19T22:55:35.984Z,91.80
2017-12-19T22:58:04.755Z,91.70
2017-12-19T23:00:31.097Z,91.80
2017-12-19T23:02:58.775Z,91.70
2017-12-19T23:05:25.695Z,91.80
2017-12-19T23:07:51.958Z,91.90
2017-12-19T23:10:18.672Z,91.80
2017-12-19T23:12:47.004Z,91.70
2017-12-19T23:15:13.221Z,91.50
2017-12-19T23:17:42.515Z,91.40
2017-12-19T23:20:09.478Z,91.60
2017-12-19T23:22:36.647Z,91.60
2017-12-19T23:25:03.888Z,91.80
2017-12-19T23:27:31.603Z,92.20
2017-12-19T23:29:58.440Z,92.20
2017-12-19T23:32:24.685Z,92.40
2017-12-19T23:34:55.328Z,92.30
2017-12-19T23:37:21.575Z,92.20
2017-12-19T23:39:48.610Z,91.80
2017-12-19T23:42:15.604Z,91.90
2017-12-19T23:44:43.211Z,91.80
